sensor_id;sensor_type;location;lat;lon;timestamp;P1;durP1;ratioP1;P2;durP2;ratioP2
74636;SDS011;63141;54.616;39.754;2023-05-07T00:02:54;2.40;;;1.50;;
74636;SDS011;63141;54.616;39.754;2023-05-07T00:06:01;2.65;;;1.55;;
74636;SDS011;63141;54.616;39.754;2023-05-07T00:09:06;5.05;;;1.63;;
74636;SDS011;63141;54.616;39.754;2023-05-07T00:12:07;1.83;;;1.42;;
74636;SDS011;63141;54.616;39.754;2023-05-07T00:15:10;2.05;;;1.40;;
74636;SDS011;63141;54.616;39.754;2023-05-07T00:18:12;2.08;;;1.30;;
74636;SDS011;63141;54.616;39.754;2023-05-07T00:21:13;2.08;;;1.60;;
74636;SDS011;63141;54.616;39.754;2023-05-07T00:24:14;3.35;;;1.67;;
74636;SDS011;63141;54.616;39.754;2023-05-07T00:27:22;2.58;;;1.40;;
74636;SDS011;63141;54.616;39.754;2023-05-07T00:30:26;2.28;;;1.50;;
74636;SDS011;63141;54.616;39.754;2023-05-07T00:33:28;3.40;;;1.52;;
74636;SDS011;63141;54.616;39.754;2023-05-07T00:36:29;3.08;;;1.42;;
74636;SDS011;63141;54.616;39.754;2023-05-07T00:39:31;2.60;;;1.55;;
74636;SDS011;63141;54.616;39.754;2023-05-07T00:42:32;2.15;;;1.60;;
74636;SDS011;63141;54.616;39.754;2023-05-07T00:45:34;2.40;;;1.42;;
74636;SDS011;63141;54.616;39.754;2023-05-07T00:48:35;2.53;;;1.27;;
74636;SDS011;63141;54.616;39.754;2023-05-07T00:51:39;3.03;;;1.33;;
74636;SDS011;63141;54.616;39.754;2023-05-07T00:54:41;2.65;;;1.50;;
74636;SDS011;63141;54.616;39.754;2023-05-07T00:57:43;2.42;;;1.40;;
74636;SDS011;63141;54.616;39.754;2023-05-07T01:00:48;4.15;;;1.50;;
74636;SDS011;63141;54.616;39.754;2023-05-07T01:03:52;3.17;;;1.83;;
74636;SDS011;63141;54.616;39.754;2023-05-07T01:07:00;1.60;;;1.38;;
74636;SDS011;63141;54.616;39.754;2023-05-07T01:10:03;2.15;;;1.17;;
74636;SDS011;63141;54.616;39.754;2023-05-07T01:13:05;2.30;;;1.50;;
74636;SDS011;63141;54.616;39.754;2023-05-07T01:16:08;2.33;;;1.20;;
74636;SDS011;63141;54.616;39.754;2023-05-07T01:19:11;2.80;;;1.50;;
74636;SDS011;63141;54.616;39.754;2023-05-07T01:25:33;3.05;;;1.60;;
74636;SDS011;63141;54.616;39.754;2023-05-07T01:28:39;1.80;;;1.40;;
74636;SDS011;63141;54.616;39.754;2023-05-07T01:31:43;3.75;;;1.40;;
74636;SDS011;63141;54.616;39.754;2023-05-07T01:34:45;2.05;;;1.40;;
74636;SDS011;63141;54.616;39.754;2023-05-07T01:37:52;2.10;;;1.70;;
74636;SDS011;63141;54.616;39.754;2023-05-07T01:40:55;2.35;;;1.30;;
74636;SDS011;63141;54.616;39.754;2023-05-07T01:43:57;2.50;;;1.40;;
74636;SDS011;63141;54.616;39.754;2023-05-07T01:47:00;3.60;;;1.45;;
74636;SDS011;63141;54.616;39.754;2023-05-07T01:50:03;3.67;;;1.20;;
74636;SDS011;63141;54.616;39.754;2023-05-07T01:53:06;2.28;;;1.42;;
74636;SDS011;63141;54.616;39.754;2023-05-07T01:56:10;4.05;;;1.45;;
74636;SDS011;63141;54.616;39.754;2023-05-07T01:59:14;2.17;;;1.30;;
74636;SDS011;63141;54.616;39.754;2023-05-07T02:02:18;2.63;;;1.30;;
74636;SDS011;63141;54.616;39.754;2023-05-07T02:05:20;3.95;;;1.25;;
74636;SDS011;63141;54.616;39.754;2023-05-07T02:08:31;2.13;;;1.38;;
74636;SDS011;63141;54.616;39.754;2023-05-07T02:11:33;3.00;;;1.45;;
74636;SDS011;63141;54.616;39.754;2023-05-07T02:14:35;3.22;;;1.40;;
74636;SDS011;63141;54.616;39.754;2023-05-07T02:17:39;2.30;;;1.20;;
74636;SDS011;63141;54.616;39.754;2023-05-07T02:20:59;6.88;;;1.63;;
74636;SDS011;63141;54.616;39.754;2023-05-07T02:24:01;1.95;;;1.30;;
74636;SDS011;63141;54.616;39.754;2023-05-07T02:27:02;1.70;;;1.10;;
74636;SDS011;63141;54.616;39.754;2023-05-07T02:30:04;2.42;;;1.30;;
74636;SDS011;63141;54.616;39.754;2023-05-07T02:33:06;3.75;;;1.40;;
74636;SDS011;63141;54.616;39.754;2023-05-07T02:36:09;2.47;;;1.52;;
74636;SDS011;63141;54.616;39.754;2023-05-07T02:39:27;5.70;;;1.40;;
74636;SDS011;63141;54.616;39.754;2023-05-07T02:42:29;2.55;;;1.40;;
74636;SDS011;63141;54.616;39.754;2023-05-07T02:45:30;1.58;;;1.10;;
74636;SDS011;63141;54.616;39.754;2023-05-07T02:48:32;3.33;;;1.40;;
74636;SDS011;63141;54.616;39.754;2023-05-07T02:51:34;3.85;;;1.58;;
74636;SDS011;63141;54.616;39.754;2023-05-07T02:54:38;1.98;;;1.45;;
74636;SDS011;63141;54.616;39.754;2023-05-07T02:57:40;1.70;;;1.10;;
74636;SDS011;63141;54.616;39.754;2023-05-07T03:00:42;2.97;;;1.63;;
74636;SDS011;63141;54.616;39.754;2023-05-07T03:04:05;2.80;;;1.40;;
74636;SDS011;63141;54.616;39.754;2023-05-07T03:07:07;2.30;;;1.40;;
74636;SDS011;63141;54.616;39.754;2023-05-07T03:10:08;2.70;;;1.55;;
74636;SDS011;63141;54.616;39.754;2023-05-07T03:13:12;1.65;;;1.17;;
74636;SDS011;63141;54.616;39.754;2023-05-07T03:16:14;1.67;;;1.30;;
74636;SDS011;63141;54.616;39.754;2023-05-07T03:19:16;2.35;;;1.60;;
74636;SDS011;63141;54.616;39.754;2023-05-07T03:22:17;3.70;;;1.40;;
74636;SDS011;63141;54.616;39.754;2023-05-07T03:25:21;3.22;;;1.60;;
74636;SDS011;63141;54.616;39.754;2023-05-07T03:28:23;2.25;;;1.60;;
74636;SDS011;63141;54.616;39.754;2023-05-07T03:31:32;3.22;;;1.42;;
74636;SDS011;63141;54.616;39.754;2023-05-07T03:34:35;2.15;;;1.50;;
74636;SDS011;63141;54.616;39.754;2023-05-07T03:37:37;3.75;;;1.88;;
74636;SDS011;63141;54.616;39.754;2023-05-07T03:40:46;1.90;;;1.60;;
74636;SDS011;63141;54.616;39.754;2023-05-07T03:43:51;3.20;;;1.80;;
74636;SDS011;63141;54.616;39.754;2023-05-07T03:46:53;2.30;;;1.73;;
74636;SDS011;63141;54.616;39.754;2023-05-07T03:49:57;2.72;;;1.65;;
74636;SDS011;63141;54.616;39.754;2023-05-07T03:52:59;2.80;;;1.70;;
74636;SDS011;63141;54.616;39.754;2023-05-07T03:56:02;2.72;;;1.60;;
74636;SDS011;63141;54.616;39.754;2023-05-07T03:59:08;5.05;;;1.75;;
74636;SDS011;63141;54.616;39.754;2023-05-07T04:02:12;3.10;;;1.48;;
74636;SDS011;63141;54.616;39.754;2023-05-07T04:05:14;3.95;;;1.75;;
74636;SDS011;63141;54.616;39.754;2023-05-07T04:08:23;2.78;;;1.70;;
74636;SDS011;63141;54.616;39.754;2023-05-07T04:11:28;3.72;;;1.70;;
74636;SDS011;63141;54.616;39.754;2023-05-07T04:14:29;2.80;;;1.90;;
74636;SDS011;63141;54.616;39.754;2023-05-07T04:17:37;2.70;;;1.60;;
74636;SDS011;63141;54.616;39.754;2023-05-07T04:20:39;2.22;;;1.50;;
74636;SDS011;63141;54.616;39.754;2023-05-07T04:23:47;2.08;;;1.45;;
74636;SDS011;63141;54.616;39.754;2023-05-07T04:26:49;2.25;;;1.50;;
74636;SDS011;63141;54.616;39.754;2023-05-07T04:29:52;4.03;;;2.00;;
74636;SDS011;63141;54.616;39.754;2023-05-07T04:32:57;3.30;;;1.67;;
74636;SDS011;63141;54.616;39.754;2023-05-07T04:36:07;2.97;;;1.83;;
74636;SDS011;63141;54.616;39.754;2023-05-07T04:39:14;3.75;;;1.88;;
74636;SDS011;63141;54.616;39.754;2023-05-07T04:42:18;6.90;;;2.55;;
74636;SDS011;63141;54.616;39.754;2023-05-07T04:45:20;5.10;;;2.40;;
74636;SDS011;63141;54.616;39.754;2023-05-07T04:48:25;3.90;;;2.47;;
74636;SDS011;63141;54.616;39.754;2023-05-07T04:51:28;8.43;;;3.17;;
74636;SDS011;63141;54.616;39.754;2023-05-07T04:54:30;7.38;;;2.90;;
74636;SDS011;63141;54.616;39.754;2023-05-07T04:57:31;4.82;;;2.67;;
74636;SDS011;63141;54.616;39.754;2023-05-07T05:00:39;9.65;;;3.13;;
74636;SDS011;63141;54.616;39.754;2023-05-07T05:03:46;9.68;;;3.10;;
74636;SDS011;63141;54.616;39.754;2023-05-07T05:06:56;9.98;;;3.53;;
74636;SDS011;63141;54.616;39.754;2023-05-07T05:10:01;7.80;;;3.17;;
74636;SDS011;63141;54.616;39.754;2023-05-07T05:13:12;9.35;;;3.80;;
74636;SDS011;63141;54.616;39.754;2023-05-07T05:16:26;9.13;;;3.97;;
74636;SDS011;63141;54.616;39.754;2023-05-07T05:19:28;6.32;;;3.28;;
74636;SDS011;63141;54.616;39.754;2023-05-07T05:22:29;4.97;;;3.15;;
74636;SDS011;63141;54.616;39.754;2023-05-07T05:25:35;7.60;;;3.65;;
74636;SDS011;63141;54.616;39.754;2023-05-07T05:28:36;5.65;;;3.13;;
74636;SDS011;63141;54.616;39.754;2023-05-07T05:31:50;10.32;;;3.60;;
74636;SDS011;63141;54.616;39.754;2023-05-07T05:34:56;8.82;;;3.53;;
74636;SDS011;63141;54.616;39.754;2023-05-07T05:38:06;5.25;;;3.08;;
74636;SDS011;63141;54.616;39.754;2023-05-07T05:41:11;5.47;;;3.03;;
74636;SDS011;63141;54.616;39.754;2023-05-07T05:44:18;7.50;;;3.47;;
74636;SDS011;63141;54.616;39.754;2023-05-07T05:47:23;5.38;;;2.72;;
74636;SDS011;63141;54.616;39.754;2023-05-07T05:50:37;5.00;;;2.60;;
74636;SDS011;63141;54.616;39.754;2023-05-07T05:53:42;4.20;;;2.70;;
74636;SDS011;63141;54.616;39.754;2023-05-07T05:56:55;5.78;;;3.00;;
74636;SDS011;63141;54.616;39.754;2023-05-07T06:00:04;6.95;;;3.22;;
74636;SDS011;63141;54.616;39.754;2023-05-07T06:03:23;6.47;;;2.72;;
74636;SDS011;63141;54.616;39.754;2023-05-07T06:06:25;4.60;;;2.58;;
74636;SDS011;63141;54.616;39.754;2023-05-07T06:09:26;3.65;;;2.50;;
74636;SDS011;63141;54.616;39.754;2023-05-07T06:12:33;4.28;;;2.78;;
74636;SDS011;63141;54.616;39.754;2023-05-07T06:15:44;5.93;;;2.40;;
74636;SDS011;63141;54.616;39.754;2023-05-07T06:19:00;5.15;;;2.10;;
74636;SDS011;63141;54.616;39.754;2023-05-07T06:22:26;3.72;;;2.03;;
74636;SDS011;63141;54.616;39.754;2023-05-07T06:25:32;3.90;;;2.30;;
74636;SDS011;63141;54.616;39.754;2023-05-07T06:28:48;5.03;;;2.17;;
74636;SDS011;63141;54.616;39.754;2023-05-07T06:35:17;7.70;;;2.10;;
74636;SDS011;63141;54.616;39.754;2023-05-07T06:38:19;3.05;;;1.85;;
74636;SDS011;63141;54.616;39.754;2023-05-07T06:41:27;3.67;;;1.60;;
74636;SDS011;63141;54.616;39.754;2023-05-07T06:44:44;8.15;;;1.58;;
74636;SDS011;63141;54.616;39.754;2023-05-07T06:47:52;2.13;;;1.35;;
74636;SDS011;63141;54.616;39.754;2023-05-07T06:51:09;3.72;;;1.58;;
74636;SDS011;63141;54.616;39.754;2023-05-07T06:54:14;9.25;;;1.50;;
74636;SDS011;63141;54.616;39.754;2023-05-07T06:57:30;3.40;;;1.40;;
74636;SDS011;63141;54.616;39.754;2023-05-07T07:00:40;3.58;;;1.73;;
74636;SDS011;63141;54.616;39.754;2023-05-07T07:03:50;2.30;;;1.25;;
74636;SDS011;63141;54.616;39.754;2023-05-07T07:06:56;3.05;;;1.30;;
74636;SDS011;63141;54.616;39.754;2023-05-07T07:13:31;2.35;;;1.48;;
74636;SDS011;63141;54.616;39.754;2023-05-07T07:16:38;1.55;;;1.23;;
74636;SDS011;63141;54.616;39.754;2023-05-07T07:19:52;3.45;;;1.20;;
74636;SDS011;63141;54.616;39.754;2023-05-07T07:22:59;2.33;;;1.60;;
74636;SDS011;63141;54.616;39.754;2023-05-07T07:26:06;5.05;;;1.23;;
74636;SDS011;63141;54.616;39.754;2023-05-07T07:29:13;5.47;;;1.40;;
74636;SDS011;63141;54.616;39.754;2023-05-07T07:32:20;5.13;;;1.50;;
74636;SDS011;63141;54.616;39.754;2023-05-07T07:35:27;4.43;;;1.15;;
74636;SDS011;63141;54.616;39.754;2023-05-07T07:39:01;1.85;;;1.20;;
74636;SDS011;63141;54.616;39.754;2023-05-07T07:42:18;7.05;;;1.20;;
74636;SDS011;63141;54.616;39.754;2023-05-07T07:45:50;6.53;;;1.40;;
74636;SDS011;63141;54.616;39.754;2023-05-07T07:48:52;7.28;;;1.48;;
74636;SDS011;63141;54.616;39.754;2023-05-07T07:51:54;2.38;;;1.27;;
74636;SDS011;63141;54.616;39.754;2023-05-07T07:55:00;4.37;;;1.40;;
74636;SDS011;63141;54.616;39.754;2023-05-07T07:58:08;3.40;;;1.30;;
74636;SDS011;63141;54.616;39.754;2023-05-07T08:01:19;3.72;;;1.55;;
74636;SDS011;63141;54.616;39.754;2023-05-07T08:04:33;4.43;;;1.23;;
74636;SDS011;63141;54.616;39.754;2023-05-07T08:07:47;4.18;;;1.60;;
74636;SDS011;63141;54.616;39.754;2023-05-07T08:11:05;4.70;;;1.80;;
74636;SDS011;63141;54.616;39.754;2023-05-07T08:14:11;4.22;;;1.70;;
74636;SDS011;63141;54.616;39.754;2023-05-07T08:17:42;9.17;;;2.50;;
74636;SDS011;63141;54.616;39.754;2023-05-07T08:20:46;12.25;;;3.20;;
74636;SDS011;63141;54.616;39.754;2023-05-07T08:23:57;112.07;;;46.42;;
74636;SDS011;63141;54.616;39.754;2023-05-07T08:27:20;364.10;;;173.43;;
74636;SDS011;63141;54.616;39.754;2023-05-07T08:30:33;302.17;;;144.25;;
74636;SDS011;63141;54.616;39.754;2023-05-07T08:33:57;232.38;;;109.90;;
74636;SDS011;63141;54.616;39.754;2023-05-07T08:37:11;215.60;;;99.22;;
74636;SDS011;63141;54.616;39.754;2023-05-07T08:40:58;186.35;;;84.18;;
74636;SDS011;63141;54.616;39.754;2023-05-07T08:44:11;182.15;;;85.25;;
74636;SDS011;63141;54.616;39.754;2023-05-07T08:47:15;164.10;;;76.00;;
74636;SDS011;63141;54.616;39.754;2023-05-07T08:50:36;155.35;;;72.07;;
74636;SDS011;63141;54.616;39.754;2023-05-07T08:53:59;142.77;;;64.90;;
74636;SDS011;63141;54.616;39.754;2023-05-07T08:57:06;131.27;;;58.13;;
74636;SDS011;63141;54.616;39.754;2023-05-07T09:00:28;136.23;;;60.80;;
74636;SDS011;63141;54.616;39.754;2023-05-07T09:03:45;123.32;;;59.05;;
74636;SDS011;63141;54.616;39.754;2023-05-07T09:06:53;126.18;;;54.45;;
74636;SDS011;63141;54.616;39.754;2023-05-07T09:10:12;106.40;;;49.92;;
74636;SDS011;63141;54.616;39.754;2023-05-07T09:13:18;113.90;;;50.47;;
74636;SDS011;63141;54.616;39.754;2023-05-07T09:16:25;97.85;;;46.80;;
74636;SDS011;63141;54.616;39.754;2023-05-07T09:19:48;95.93;;;46.97;;
74636;SDS011;63141;54.616;39.754;2023-05-07T09:22:55;102.03;;;47.53;;
74636;SDS011;63141;54.616;39.754;2023-05-07T09:26:03;101.82;;;46.83;;
74636;SDS011;63141;54.616;39.754;2023-05-07T09:29:29;95.40;;;44.63;;
74636;SDS011;63141;54.616;39.754;2023-05-07T09:35:53;96.43;;;44.63;;
74636;SDS011;63141;54.616;39.754;2023-05-07T09:39:14;100.10;;;45.72;;
74636;SDS011;63141;54.616;39.754;2023-05-07T09:42:23;104.32;;;46.03;;
74636;SDS011;63141;54.616;39.754;2023-05-07T09:45:37;98.15;;;42.03;;
74636;SDS011;63141;54.616;39.754;2023-05-07T09:48:46;99.93;;;45.08;;
74636;SDS011;63141;54.616;39.754;2023-05-07T09:51:50;94.93;;;43.33;;
74636;SDS011;63141;54.616;39.754;2023-05-07T09:55:04;90.22;;;43.10;;
74636;SDS011;63141;54.616;39.754;2023-05-07T09:58:09;92.05;;;39.95;;
74636;SDS011;63141;54.616;39.754;2023-05-07T10:01:19;95.63;;;39.35;;
74636;SDS011;63141;54.616;39.754;2023-05-07T10:04:50;89.43;;;38.88;;
74636;SDS011;63141;54.616;39.754;2023-05-07T10:07:56;83.82;;;38.33;;
74636;SDS011;63141;54.616;39.754;2023-05-07T10:11:40;82.30;;;38.15;;
74636;SDS011;63141;54.616;39.754;2023-05-07T10:14:51;78.25;;;37.78;;
74636;SDS011;63141;54.616;39.754;2023-05-07T10:18:04;79.25;;;35.72;;
74636;SDS011;63141;54.616;39.754;2023-05-07T10:21:17;80.68;;;36.33;;
74636;SDS011;63141;54.616;39.754;2023-05-07T10:24:33;76.20;;;36.08;;
74636;SDS011;63141;54.616;39.754;2023-05-07T10:27:48;81.53;;;35.08;;
74636;SDS011;63141;54.616;39.754;2023-05-07T10:31:32;74.28;;;33.55;;
74636;SDS011;63141;54.616;39.754;2023-05-07T10:34:44;75.15;;;33.13;;
74636;SDS011;63141;54.616;39.754;2023-05-07T10:37:52;72.55;;;32.00;;
74636;SDS011;63141;54.616;39.754;2023-05-07T10:41:02;70.75;;;32.13;;
74636;SDS011;63141;54.616;39.754;2023-05-07T10:44:08;63.83;;;31.08;;
74636;SDS011;63141;54.616;39.754;2023-05-07T10:47:22;65.15;;;30.17;;
74636;SDS011;63141;54.616;39.754;2023-05-07T10:50:38;60.70;;;29.57;;
74636;SDS011;63141;54.616;39.754;2023-05-07T10:53:47;64.78;;;29.48;;
74636;SDS011;63141;54.616;39.754;2023-05-07T11:00:58;58.22;;;29.10;;
74636;SDS011;63141;54.616;39.754;2023-05-07T11:04:16;58.78;;;26.98;;
74636;SDS011;63141;54.616;39.754;2023-05-07T11:07:40;56.33;;;26.75;;
74636;SDS011;63141;54.616;39.754;2023-05-07T11:11:05;56.30;;;28.38;;
74636;SDS011;63141;54.616;39.754;2023-05-07T11:15:08;49.95;;;24.33;;
74636;SDS011;63141;54.616;39.754;2023-05-07T11:18:13;56.28;;;25.92;;
74636;SDS011;63141;54.616;39.754;2023-05-07T11:22:02;51.10;;;24.33;;
74636;SDS011;63141;54.616;39.754;2023-05-07T11:25:57;51.83;;;24.10;;
74636;SDS011;63141;54.616;39.754;2023-05-07T11:29:13;49.17;;;23.42;;
74636;SDS011;63141;54.616;39.754;2023-05-07T11:32:31;50.50;;;24.20;;
74636;SDS011;63141;54.616;39.754;2023-05-07T11:35:54;44.67;;;22.20;;
74636;SDS011;63141;54.616;39.754;2023-05-07T11:39:30;43.70;;;22.95;;
74636;SDS011;63141;54.616;39.754;2023-05-07T11:42:34;42.60;;;21.40;;
74636;SDS011;63141;54.616;39.754;2023-05-07T11:45:45;44.45;;;21.05;;
74636;SDS011;63141;54.616;39.754;2023-05-07T11:48:50;40.33;;;21.58;;
74636;SDS011;63141;54.616;39.754;2023-05-07T11:52:01;39.50;;;19.13;;
74636;SDS011;63141;54.616;39.754;2023-05-07T11:55:30;38.40;;;20.17;;
74636;SDS011;63141;54.616;39.754;2023-05-07T11:58:35;41.10;;;19.73;;
74636;SDS011;63141;54.616;39.754;2023-05-07T12:01:50;40.28;;;18.38;;
74636;SDS011;63141;54.616;39.754;2023-05-07T12:08:58;38.85;;;18.60;;
74636;SDS011;63141;54.616;39.754;2023-05-07T12:12:26;37.55;;;17.58;;
74636;SDS011;63141;54.616;39.754;2023-05-07T12:15:36;35.70;;;18.33;;
74636;SDS011;63141;54.616;39.754;2023-05-07T12:18:49;34.30;;;16.42;;
74636;SDS011;63141;54.616;39.754;2023-05-07T12:22:01;33.05;;;17.20;;
74636;SDS011;63141;54.616;39.754;2023-05-07T12:25:19;30.27;;;16.55;;
74636;SDS011;63141;54.616;39.754;2023-05-07T12:28:26;34.75;;;16.02;;
74636;SDS011;63141;54.616;39.754;2023-05-07T12:31:43;33.45;;;16.80;;
74636;SDS011;63141;54.616;39.754;2023-05-07T12:35:05;32.10;;;16.55;;
74636;SDS011;63141;54.616;39.754;2023-05-07T12:38:25;30.13;;;14.95;;
74636;SDS011;63141;54.616;39.754;2023-05-07T12:42:08;25.33;;;14.93;;
74636;SDS011;63141;54.616;39.754;2023-05-07T12:45:37;30.05;;;15.82;;
74636;SDS011;63141;54.616;39.754;2023-05-07T12:48:44;31.05;;;15.63;;
74636;SDS011;63141;54.616;39.754;2023-05-07T12:52:00;29.90;;;15.52;;
74636;SDS011;63141;54.616;39.754;2023-05-07T12:55:08;33.55;;;15.20;;
74636;SDS011;63141;54.616;39.754;2023-05-07T12:58:26;25.95;;;13.55;;
74636;SDS011;63141;54.616;39.754;2023-05-07T13:01:53;23.95;;;13.70;;
74636;SDS011;63141;54.616;39.754;2023-05-07T13:04:57;30.05;;;13.57;;
74636;SDS011;63141;54.616;39.754;2023-05-07T13:08:36;26.15;;;13.48;;
74636;SDS011;63141;54.616;39.754;2023-05-07T13:11:41;25.38;;;13.80;;
74636;SDS011;63141;54.616;39.754;2023-05-07T13:14:57;26.17;;;13.02;;
74636;SDS011;63141;54.616;39.754;2023-05-07T13:18:01;25.23;;;12.55;;
74636;SDS011;63141;54.616;39.754;2023-05-07T13:21:08;23.58;;;12.50;;
74636;SDS011;63141;54.616;39.754;2023-05-07T13:24:16;26.23;;;12.57;;
74636;SDS011;63141;54.616;39.754;2023-05-07T13:27:26;22.83;;;12.00;;
74636;SDS011;63141;54.616;39.754;2023-05-07T13:34:22;21.63;;;11.05;;
74636;SDS011;63141;54.616;39.754;2023-05-07T13:37:47;23.17;;;11.63;;
74636;SDS011;63141;54.616;39.754;2023-05-07T13:40:53;20.30;;;11.38;;
74636;SDS011;63141;54.616;39.754;2023-05-07T13:44:18;24.17;;;11.02;;
74636;SDS011;63141;54.616;39.754;2023-05-07T13:47:47;18.83;;;10.75;;
74636;SDS011;63141;54.616;39.754;2023-05-07T13:50:57;19.55;;;10.50;;
74636;SDS011;63141;54.616;39.754;2023-05-07T13:53:58;21.83;;;10.68;;
74636;SDS011;63141;54.616;39.754;2023-05-07T13:57:08;16.00;;;10.00;;
74636;SDS011;63141;54.616;39.754;2023-05-07T14:00:39;17.70;;;10.40;;
74636;SDS011;63141;54.616;39.754;2023-05-07T14:04:02;20.98;;;10.60;;
74636;SDS011;63141;54.616;39.754;2023-05-07T14:07:08;21.95;;;10.65;;
74636;SDS011;63141;54.616;39.754;2023-05-07T14:10:27;18.27;;;9.18;;
74636;SDS011;63141;54.616;39.754;2023-05-07T14:13:38;18.48;;;9.57;;
74636;SDS011;63141;54.616;39.754;2023-05-07T14:16:46;15.82;;;9.57;;
74636;SDS011;63141;54.616;39.754;2023-05-07T14:19:59;18.85;;;9.40;;
74636;SDS011;63141;54.616;39.754;2023-05-07T14:23:18;18.60;;;10.00;;
74636;SDS011;63141;54.616;39.754;2023-05-07T14:26:29;18.30;;;8.80;;
74636;SDS011;63141;54.616;39.754;2023-05-07T14:29:45;14.90;;;8.27;;
74636;SDS011;63141;54.616;39.754;2023-05-07T14:33:13;15.23;;;8.50;;
74636;SDS011;63141;54.616;39.754;2023-05-07T14:36:35;15.70;;;8.50;;
74636;SDS011;63141;54.616;39.754;2023-05-07T14:39:39;16.33;;;8.63;;
74636;SDS011;63141;54.616;39.754;2023-05-07T14:42:52;15.05;;;7.82;;
74636;SDS011;63141;54.616;39.754;2023-05-07T14:46:14;14.10;;;7.22;;
74636;SDS011;63141;54.616;39.754;2023-05-07T14:49:26;14.43;;;8.05;;
74636;SDS011;63141;54.616;39.754;2023-05-07T14:52:30;14.88;;;7.57;;
74636;SDS011;63141;54.616;39.754;2023-05-07T14:55:37;15.57;;;7.82;;
74636;SDS011;63141;54.616;39.754;2023-05-07T14:59:13;11.85;;;7.07;;
74636;SDS011;63141;54.616;39.754;2023-05-07T15:02:43;15.30;;;7.50;;
74636;SDS011;63141;54.616;39.754;2023-05-07T15:06:22;14.70;;;7.22;;
74636;SDS011;63141;54.616;39.754;2023-05-07T15:09:42;12.85;;;6.80;;
74636;SDS011;63141;54.616;39.754;2023-05-07T15:12:47;12.05;;;6.07;;
74636;SDS011;63141;54.616;39.754;2023-05-07T15:16:03;13.60;;;7.13;;
74636;SDS011;63141;54.616;39.754;2023-05-07T15:19:13;12.20;;;6.93;;
74636;SDS011;63141;54.616;39.754;2023-05-07T15:22:21;12.00;;;6.65;;
74636;SDS011;63141;54.616;39.754;2023-05-07T15:25:31;12.38;;;7.05;;
74636;SDS011;63141;54.616;39.754;2023-05-07T15:28:56;11.68;;;6.40;;
74636;SDS011;63141;54.616;39.754;2023-05-07T15:32:01;13.63;;;6.63;;
74636;SDS011;63141;54.616;39.754;2023-05-07T15:35:17;9.30;;;5.63;;
74636;SDS011;63141;54.616;39.754;2023-05-07T15:38:28;13.27;;;6.57;;
74636;SDS011;63141;54.616;39.754;2023-05-07T15:41:41;11.52;;;6.63;;
74636;SDS011;63141;54.616;39.754;2023-05-07T15:44:49;11.30;;;5.65;;
74636;SDS011;63141;54.616;39.754;2023-05-07T15:47:59;9.57;;;5.80;;
74636;SDS011;63141;54.616;39.754;2023-05-07T15:51:03;9.90;;;5.38;;
74636;SDS011;63141;54.616;39.754;2023-05-07T15:54:15;9.68;;;5.72;;
74636;SDS011;63141;54.616;39.754;2023-05-07T15:57:26;10.57;;;5.50;;
74636;SDS011;63141;54.616;39.754;2023-05-07T16:00:34;11.02;;;4.47;;
74636;SDS011;63141;54.616;39.754;2023-05-07T16:03:57;9.88;;;5.05;;
74636;SDS011;63141;54.616;39.754;2023-05-07T16:07:10;9.48;;;3.63;;
74636;SDS011;63141;54.616;39.754;2023-05-07T16:10:17;8.63;;;3.90;;
74636;SDS011;63141;54.616;39.754;2023-05-07T16:13:36;6.18;;;3.20;;
74636;SDS011;63141;54.616;39.754;2023-05-07T16:16:55;5.38;;;3.22;;
74636;SDS011;63141;54.616;39.754;2023-05-07T16:19:59;7.85;;;3.20;;
74636;SDS011;63141;54.616;39.754;2023-05-07T16:23:06;6.40;;;2.90;;
74636;SDS011;63141;54.616;39.754;2023-05-07T16:26:25;8.30;;;2.67;;
74636;SDS011;63141;54.616;39.754;2023-05-07T16:29:50;5.93;;;3.17;;
74636;SDS011;63141;54.616;39.754;2023-05-07T16:32:54;8.38;;;3.38;;
74636;SDS011;63141;54.616;39.754;2023-05-07T16:36:01;6.20;;;2.70;;
74636;SDS011;63141;54.616;39.754;2023-05-07T16:39:10;6.53;;;2.80;;
74636;SDS011;63141;54.616;39.754;2023-05-07T16:42:18;4.93;;;2.55;;
74636;SDS011;63141;54.616;39.754;2023-05-07T16:45:37;4.82;;;2.60;;
74636;SDS011;63141;54.616;39.754;2023-05-07T16:48:47;3.95;;;2.55;;
74636;SDS011;63141;54.616;39.754;2023-05-07T16:55:01;110.05;;;77.03;;
74636;SDS011;63141;54.616;39.754;2023-05-07T16:58:12;19.08;;;11.88;;
74636;SDS011;63141;54.616;39.754;2023-05-07T17:01:40;10.98;;;3.90;;
74636;SDS011;63141;54.616;39.754;2023-05-07T17:04:45;8.45;;;4.45;;
74636;SDS011;63141;54.616;39.754;2023-05-07T17:08:07;258.98;;;187.77;;
74636;SDS011;63141;54.616;39.754;2023-05-07T17:11:26;143.07;;;95.88;;
74636;SDS011;63141;54.616;39.754;2023-05-07T17:14:45;90.97;;;52.43;;
74636;SDS011;63141;54.616;39.754;2023-05-07T17:18:02;73.05;;;44.88;;
74636;SDS011;63141;54.616;39.754;2023-05-07T17:21:03;110.43;;;65.22;;
74636;SDS011;63141;54.616;39.754;2023-05-07T17:24:13;830.00;;;627.22;;
74636;SDS011;63141;54.616;39.754;2023-05-07T17:27:30;41.30;;;22.98;;
74636;SDS011;63141;54.616;39.754;2023-05-07T17:30:55;566.47;;;402.75;;
74636;SDS011;63141;54.616;39.754;2023-05-07T17:34:18;10.82;;;5.72;;
74636;SDS011;63141;54.616;39.754;2023-05-07T17:37:43;13.95;;;7.22;;
74636;SDS011;63141;54.616;39.754;2023-05-07T17:41:01;534.67;;;300.70;;
74636;SDS011;63141;54.616;39.754;2023-05-07T17:44:12;10.02;;;4.15;;
74636;SDS011;63141;54.616;39.754;2023-05-07T17:47:31;7.15;;;3.80;;
74636;SDS011;63141;54.616;39.754;2023-05-07T17:50:59;6.32;;;3.42;;
74636;SDS011;63141;54.616;39.754;2023-05-07T17:54:03;510.10;;;428.30;;
74636;SDS011;63141;54.616;39.754;2023-05-07T17:57:26;19.73;;;12.38;;
74636;SDS011;63141;54.616;39.754;2023-05-07T18:00:49;218.13;;;51.53;;
74636;SDS011;63141;54.616;39.754;2023-05-07T18:04:08;585.88;;;189.38;;
74636;SDS011;63141;54.616;39.754;2023-05-07T18:07:30;682.33;;;227.38;;
74636;SDS011;63141;54.616;39.754;2023-05-07T18:10:34;1103.85;;;620.60;;
74636;SDS011;63141;54.616;39.754;2023-05-07T18:13:44;691.70;;;237.77;;
74636;SDS011;63141;54.616;39.754;2023-05-07T18:16:57;828.83;;;419.27;;
74636;SDS011;63141;54.616;39.754;2023-05-07T18:20:16;620.60;;;211.45;;
74636;SDS011;63141;54.616;39.754;2023-05-07T18:23:20;613.22;;;219.18;;
74636;SDS011;63141;54.616;39.754;2023-05-07T18:26:46;613.08;;;213.80;;
74636;SDS011;63141;54.616;39.754;2023-05-07T18:30:02;571.13;;;204.07;;
74636;SDS011;63141;54.616;39.754;2023-05-07T18:33:05;556.70;;;190.53;;
74636;SDS011;63141;54.616;39.754;2023-05-07T18:36:19;539.95;;;185.85;;
74636;SDS011;63141;54.616;39.754;2023-05-07T18:39:36;513.63;;;173.68;;
74636;SDS011;63141;54.616;39.754;2023-05-07T18:42:58;482.95;;;162.52;;
74636;SDS011;63141;54.616;39.754;2023-05-07T18:46:18;998.72;;;688.50;;
74636;SDS011;63141;54.616;39.754;2023-05-07T18:49:22;454.52;;;150.88;;
74636;SDS011;63141;54.616;39.754;2023-05-07T18:52:35;443.08;;;148.45;;
74636;SDS011;63141;54.616;39.754;2023-05-07T18:55:51;426.00;;;141.05;;
74636;SDS011;63141;54.616;39.754;2023-05-07T18:59:20;433.33;;;138.35;;
74636;SDS011;63141;54.616;39.754;2023-05-07T19:02:30;440.27;;;144.00;;
74636;SDS011;63141;54.616;39.754;2023-05-07T19:06:03;425.95;;;146.60;;
74636;SDS011;63141;54.616;39.754;2023-05-07T19:09:16;386.77;;;124.97;;